^^
Station Historical Data
Daily Summary for April 20, 2017 Units:  English    Metric   Both
« Previous Day
Next Day »
Daily Weekly Monthly Yearly Custom
  High: Low: Average:
Temperature: 63.7 °F 36.9 °F 50.2 °F
Dew Point: 43.6 °F 27.9 °F 35.5 °F
Humidity: 87% 31% 59%
Wind Speed: 20.7mph 0.0mph 7.7mph
Wind Gust: 20.7mph - -
Wind- - SE
Pressure: 30.09 in 29.83 in -
Precipitation: 0.18 in    
Historical Graphs
 
 
Tabular Data for April 20, 2017
Time Temperature Dew Point Pressure Wind Wind Speed Wind Gust Humidity Rainfall Rate (Hourly) solar Conditions
00:00 51.0 °F 32.0 °F 29.95 in ENE 3.5 mph 3.5 mph 48% 0.00 in WeatherDisplay:10.37 W/m2 CLR
00:01 51.0 °F 32.0 °F 29.93 in ENE 3.5 mph 3.5 mph 48% 0.00 in WeatherDisplay:10.37 W/m2 CLR
00:06 51.0 °F 32.0 °F 29.94 in ENE 3.5 mph 3.5 mph 48% 0.00 in WeatherDisplay:10.37 W/m2 CLR
00:11 50.9 °F 32.4 °F 29.94 in East 4.6 mph 4.6 mph 49% 0.00 in WeatherDisplay:10.37 W/m2 CLR
00:16 50.9 °F 32.4 °F 29.94 in ENE 3.5 mph 3.5 mph 49% 0.00 in WeatherDisplay:10.37 W/m2 CLR
00:17 50.9 °F 32.4 °F 29.94 in ENE 6.0 mph 6.0 mph 49% 0.00 in WeatherDisplay:10.37 W/m2 CLR
00:22 50.9 °F 32.4 °F 29.94 in ENE 4.0 mph 4.0 mph 49% 0.00 in WeatherDisplay:10.37 W/m2 CLR
00:27 50.9 °F 32.4 °F 29.94 in ENE 4.0 mph 4.0 mph 49% 0.00 in WeatherDisplay:10.37 W/m2 CLR
00:32 51.0 °F 32.5 °F 29.95 in NE 3.5 mph 3.5 mph 49% 0.00 in WeatherDisplay:10.37 W/m2 CLR
00:37 51.0 °F 32.5 °F 29.95 in ENE 3.5 mph 3.5 mph 49% 0.00 in WeatherDisplay:10.37 W/m2 CLR
00:42 51.0 °F 33.0 °F 29.95 in ENE 3.5 mph 3.5 mph 50% 0.00 in WeatherDisplay:10.37 W/m2 CLR
00:47 51.0 °F 33.0 °F 29.95 in NE 2.3 mph 2.3 mph 50% 0.00 in WeatherDisplay:10.37 W/m2 CLR
00:48 50.9 °F 32.9 °F 29.95 in ENE 3.5 mph 3.5 mph 50% 0.00 in WeatherDisplay:10.37 W/m2 CLR
00:53 50.8 °F 33.3 °F 29.95 in NNE 3.5 mph 3.5 mph 51% 0.00 in WeatherDisplay:10.37 W/m2 CLR
00:58 50.8 °F 33.3 °F 29.96 in NE 1.2 mph 1.2 mph 51% 0.00 in WeatherDisplay:10.37 W/m2 CLR
01:03 50.7 °F 33.2 °F 29.97 in NE 1.2 mph 1.2 mph 51% 0.00 in WeatherDisplay:10.37 W/m2 CLR
01:08 50.6 °F 33.1 °F 29.97 in Calm     51% 0.00 in WeatherDisplay:10.37 W/m2 CLR
01:13 50.5 °F 33.0 °F 29.97 in NE 1.0 mph   51% 0.00 in WeatherDisplay:10.37 W/m2 CLR
01:18 50.3 °F 32.8 °F 29.97 in Calm     51% 0.00 in WeatherDisplay:10.37 W/m2 CLR
01:23 50.1 °F 32.7 °F 29.97 in Calm     51% 0.00 in WeatherDisplay:10.37 W/m2 CLR
01:28 49.9 °F 32.5 °F 29.97 in NE 1.2 mph   51% 0.00 in WeatherDisplay:10.37 W/m2 CLR
01:33 49.6 °F 32.2 °F 29.97 in NE 1.2 mph 1.2 mph 51% 0.00 in WeatherDisplay:10.37 W/m2 CLR
01:38 49.2 °F 32.3 °F 29.98 in Calm     52% 0.00 in WeatherDisplay:10.37 W/m2 CLR
01:43 48.8 °F 32.4 °F 29.98 in NE 1.2 mph   53% 0.00 in WeatherDisplay:10.37 W/m2 CLR
01:48 48.4 °F 32.5 °F 29.98 in Calm     54% 0.00 in WeatherDisplay:10.37 W/m2 CLR
01:53 48.0 °F 32.1 °F 29.98 in Calm     54% 0.00 in WeatherDisplay:10.37 W/m2 CLR
01:58 47.7 °F 31.9 °F 29.98 in NE 1.2 mph 1.2 mph 54% 0.00 in WeatherDisplay:10.37 W/m2 CLR
02:03 47.4 °F 32.0 °F 29.97 in Calm     55% 0.00 in WeatherDisplay:10.37 W/m2 CLR
02:08 47.1 °F 31.7 °F 29.98 in NE 1.2 mph 1.2 mph 55% 0.00 in WeatherDisplay:10.37 W/m2 CLR
02:13 46.9 °F 32.0 °F 29.98 in NE 1.2 mph 1.2 mph 56% 0.00 in WeatherDisplay:10.37 W/m2 CLR
02:18 46.7 °F 32.3 °F 29.98 in Calm     57% 0.00 in WeatherDisplay:10.37 W/m2 CLR
02:23 46.4 °F 32.0 °F 29.98 in Calm     57% 0.00 in WeatherDisplay:10.37 W/m2 CLR
02:28 46.1 °F 31.7 °F 29.98 in Calm     57% 0.00 in WeatherDisplay:10.37 W/m2 CLR
02:33 45.7 °F 31.8 °F 29.98 in Calm     58% 0.00 in WeatherDisplay:10.37 W/m2 CLR
02:38 45.3 °F 31.4 °F 29.99 in Calm     58% 0.00 in WeatherDisplay:10.37 W/m2 CLR
02:43 45.0 °F 31.1 °F 29.99 in Calm     58% 0.00 in WeatherDisplay:10.37 W/m2 CLR
02:48 44.3 °F 29.6 °F 30.00 in SSE 2.0 mph 2.0 mph 56% 0.00 in WeatherDisplay:10.37 W/m2 CLR
02:53 43.3 °F 29.5 °F 30.01 in Calm     58% 0.00 in WeatherDisplay:10.37 W/m2 CLR
02:58 42.7 °F 29.8 °F 30.01 in SSE 3.5 mph 3.5 mph 60% 0.00 in WeatherDisplay:10.37 W/m2 CLR
03:03 42.5 °F 29.6 °F 30.02 in South 3.5 mph 3.5 mph 60% 0.00 in WeatherDisplay:10.37 W/m2 CLR
03:08 42.4 °F 29.9 °F 30.02 in South 1.2 mph   61% 0.00 in WeatherDisplay:10.37 W/m2 CLR
03:13 42.2 °F 30.5 °F 30.02 in Calm     63% 0.00 in WeatherDisplay:10.37 W/m2 CLR
03:18 42.1 °F 30.4 °F 30.02 in Calm     63% 0.00 in WeatherDisplay:10.37 W/m2 CLR
03:23 42.0 °F 30.3 °F 30.02 in Calm     63% 0.00 in WeatherDisplay:10.37 W/m2 CLR
03:28 41.8 °F 30.9 °F 30.03 in Calm     65% 0.00 in WeatherDisplay:10.37 W/m2 CLR
03:33 41.6 °F 30.7 °F 30.03 in Calm     65% 0.00 in WeatherDisplay:10.37 W/m2 CLR
03:38 41.5 °F 30.6 °F 30.03 in Calm     65% 0.00 in WeatherDisplay:10.37 W/m2 CLR
03:43 41.3 °F 30.8 °F 30.04 in Calm     66% 0.00 in WeatherDisplay:10.37 W/m2 CLR
03:48 41.1 °F 31.0 °F 30.04 in Calm     67% 0.00 in WeatherDisplay:10.37 W/m2 CLR
03:53 41.1 °F 31.7 °F 30.04 in Calm     69% 0.00 in WeatherDisplay:10.37 W/m2 CLR
03:58 41.0 °F 30.5 °F 30.04 in Calm     66% 0.00 in WeatherDisplay:10.37 W/m2 CLR
04:03 40.8 °F 30.3 °F 30.03 in Calm     66% 0.00 in WeatherDisplay:10.37 W/m2 CLR
04:08 40.6 °F 30.5 °F 30.03 in Calm     67% 0.00 in WeatherDisplay:10.37 W/m2 CLR
04:13 40.4 °F 30.7 °F 30.03 in Calm     68% 0.00 in WeatherDisplay:10.37 W/m2 CLR
04:18 40.3 °F 30.6 °F 30.03 in South 2.3 mph 2.3 mph 68% 0.00 in WeatherDisplay:10.37 W/m2 CLR
04:23 40.4 °F 30.7 °F 30.03 in South 2.3 mph 2.3 mph 68% 0.00 in WeatherDisplay:10.37 W/m2 CLR
04:28 40.4 °F 30.7 °F 30.03 in South 2.3 mph 2.3 mph 68% 0.00 in WeatherDisplay:10.37 W/m2 CLR
04:33 40.5 °F 30.4 °F 30.03 in South 2.3 mph 2.3 mph 67% 0.00 in WeatherDisplay:10.37 W/m2 CLR
04:38 40.5 °F 30.8 °F 30.03 in Calm     68% 0.00 in WeatherDisplay:10.37 W/m2 CLR
04:43 40.3 °F 30.2 °F 30.03 in Calm     67% 0.00 in WeatherDisplay:10.37 W/m2 CLR
04:49 40.2 °F 30.5 °F 30.03 in Calm     68% 0.00 in WeatherDisplay:10.37 W/m2 CLR
04:54 40.0 °F 30.3 °F 30.03 in South 1.2 mph 1.2 mph 68% 0.00 in WeatherDisplay:10.37 W/m2 CLR
04:59 39.8 °F 30.5 °F 30.03 in Calm     69% 0.00 in WeatherDisplay:10.37 W/m2 CLR
05:04 39.6 °F 29.5 °F 30.04 in Calm     67% 0.00 in WeatherDisplay:10.37 W/m2 CLR
05:09 39.1 °F 27.9 °F 30.04 in Calm     64% 0.00 in WeatherDisplay:10.37 W/m2 CLR
05:14 38.3 °F 27.9 °F 30.05 in Calm     66% 0.00 in WeatherDisplay:10.37 W/m2 CLR
05:19 37.6 °F 28.3 °F 30.05 in Calm     69% 0.00 in WeatherDisplay:10.37 W/m2 CLR
05:24 37.2 °F 29.3 °F 30.05 in Calm     73% 0.00 in WeatherDisplay:10.37 W/m2 CLR
05:29 37.2 °F 30.3 °F 30.05 in South 1.2 mph 1.2 mph 76% 0.00 in WeatherDisplay:10.37 W/m2 CLR
05:34 37.5 °F 28.9 °F 30.05 in South 3.5 mph 3.5 mph 71% 0.00 in WeatherDisplay:10.37 W/m2 CLR
05:39 37.5 °F 29.3 °F 30.05 in SSW 1.2 mph 1.2 mph 72% 0.00 in WeatherDisplay:10.37 W/m2 CLR
05:44 37.4 °F 30.2 °F 30.05 in Calm     75% 0.00 in WeatherDisplay:10.37 W/m2 CLR
05:49 37.5 °F 30.3 °F 30.05 in SSW 1.2 mph   75% 0.00 in WeatherDisplay:10.37 W/m2 CLR
05:54 37.5 °F 30.0 °F 30.05 in Calm     74% 0.00 in WeatherDisplay:10.37 W/m2 CLR
05:59 37.5 °F 30.0 °F 30.05 in Calm     74% 0.00 in WeatherDisplay:10.37 W/m2 CLR
06:04 37.4 °F 29.5 °F 30.08 in Calm     73% 0.00 in WeatherDisplay:10.37 W/m2 CLR
06:09 37.3 °F 29.1 °F 30.09 in Calm     72% 0.00 in WeatherDisplay:10.37 W/m2 CLR
06:15 37.0 °F 28.5 °F 30.09 in Calm     71% 0.00 in WeatherDisplay:10.37 W/m2 CLR
06:20 36.9 °F 29.1 °F 30.09 in Calm     73% 0.00 in WeatherDisplay:10.37 W/m2 CLR
06:25 36.9 °F 29.7 °F 30.09 in Calm     75% 0.00 in WeatherDisplay:10.37 W/m2 CLR
06:30 37.1 °F 29.6 °F 30.09 in Calm     74% 0.00 in WeatherDisplay:10.37 W/m2 CLR
06:35 37.3 °F 30.1 °F 30.09 in Calm     75% 0.00 in WeatherDisplay:10.37 W/m2 CLR
06:40 37.9 °F 31.0 °F 30.08 in SSW 1.2 mph   76% 0.00 in WeatherDisplay:10.37 W/m2 CLR
06:45 38.6 °F 31.4 °F 30.08 in SSW 1.2 mph 1.2 mph 75% 0.00 in WeatherDisplay:10.37 W/m2 CLR
06:50 39.4 °F 32.1 °F 30.08 in SSW 2.3 mph 2.3 mph 75% 0.00 in WeatherDisplay:10.37 W/m2 CLR
06:55 40.1 °F 33.1 °F 30.07 in SSW 2.3 mph 2.3 mph 76% 0.00 in WeatherDisplay:10.37 W/m2 CLR
07:00 40.7 °F 32.0 °F 30.07 in SSW 3.5 mph 3.5 mph 71% 0.00 in WeatherDisplay:10.37 W/m2 CLR
07:05 41.2 °F 32.2 °F 30.08 in SSW 3.5 mph 3.5 mph 70% 0.00 in WeatherDisplay:10.37 W/m2 CLR
07:10 41.8 °F 32.4 °F 30.07 in SSW 1.2 mph 1.2 mph 69% 0.00 in WeatherDisplay:10.37 W/m2 CLR
07:11 42.0 °F 32.9 °F 30.07 in SSW 1.2 mph 1.2 mph 70% 0.00 in WeatherDisplay:10.37 W/m2 CLR
07:16 42.6 °F 32.8 °F 30.07 in SSW 1.2 mph 1.2 mph 68% 0.00 in WeatherDisplay:10.37 W/m2 CLR
07:21 43.3 °F 33.4 °F 30.07 in Calm     68% 0.00 in WeatherDisplay:10.37 W/m2 CLR
07:26 44.2 °F 33.9 °F 30.06 in SSW 1.2 mph 1.2 mph 67% 0.00 in WeatherDisplay:10.37 W/m2 CLR
07:31 45.0 °F 34.3 °F 30.06 in SSW 2.3 mph 2.3 mph 66% 0.00 in WeatherDisplay:10.37 W/m2 CLR
07:36 45.7 °F 34.2 °F 30.05 in SSW 1.2 mph   64% 0.00 in WeatherDisplay:10.37 W/m2 CLR
07:41 46.3 °F 34.8 °F 30.05 in SSW 1.2 mph 1.2 mph 64% 0.00 in WeatherDisplay:10.37 W/m2 CLR
07:46 46.9 °F 34.6 °F 30.05 in SSW 1.0 mph   62% 0.00 in WeatherDisplay:10.37 W/m2 CLR
07:52 47.4 °F 34.6 °F 30.05 in Calm     61% 0.00 in WeatherDisplay:10.37 W/m2 CLR
07:57 48.4 °F 34.7 °F 30.04 in South 3.5 mph 3.5 mph 59% 0.00 in WeatherDisplay:10.37 W/m2 CLR
08:02 49.0 °F 34.9 °F 30.05 in SSW 4.6 mph 4.6 mph 58% 0.00 in WeatherDisplay:10.37 W/m2 CLR
08:07 49.5 °F 35.8 °F 30.03 in Calm     59% 0.00 in WeatherDisplay:10.37 W/m2 CLR
08:12 50.2 °F 34.6 °F 30.03 in SSW 4.6 mph 4.6 mph 55% 0.00 in WeatherDisplay:10.37 W/m2 CLR
08:17 50.6 °F 34.6 °F 30.03 in SSW 6.9 mph 6.9 mph 54% 0.00 in WeatherDisplay:10.37 W/m2 CLR
08:22 50.9 °F 34.8 °F 30.03 in SW 7.0 mph 7.0 mph 54% 0.00 in WeatherDisplay:10.37 W/m2 CLR
08:27 51.1 °F 34.5 °F 30.03 in SSW 6.9 mph 6.9 mph 53% 0.00 in WeatherDisplay:10.37 W/m2 CLR
08:32 51.5 °F 34.9 °F 30.02 in SSW 6.9 mph 6.9 mph 53% 0.00 in WeatherDisplay:10.37 W/m2 CLR
08:37 51.7 °F 34.6 °F 30.02 in SSW 6.9 mph 6.9 mph 52% 0.00 in WeatherDisplay:10.37 W/m2 CLR
08:42 51.7 °F 35.6 °F 30.02 in SSW 9.2 mph 9.2 mph 54% 0.00 in WeatherDisplay:10.37 W/m2 CLR
08:47 51.7 °F 34.1 °F 30.02 in South 10.4 mph 10.4 mph 51% 0.00 in WeatherDisplay:10.37 W/m2 CLR
08:52 51.8 °F 34.7 °F 30.02 in SSE 9.2 mph 9.2 mph 52% 0.00 in WeatherDisplay:10.37 W/m2 CLR
08:57 52.1 °F 35.0 °F 30.02 in SE 5.0 mph 5.0 mph 52% 0.00 in WeatherDisplay:10.37 W/m2 CLR
09:02 51.9 °F 33.8 °F 30.02 in SSE 8.1 mph 8.1 mph 50% 0.00 in WeatherDisplay:10.37 W/m2 CLR
09:07 51.9 °F 34.3 °F 30.04 in South 6.9 mph 6.9 mph 51% 0.00 in WeatherDisplay:10.37 W/m2 CLR
09:12 52.2 °F 34.6 °F 30.04 in SW 7.0 mph 7.0 mph 51% 0.00 in WeatherDisplay:10.37 W/m2 CLR
09:17 52.5 °F 34.4 °F 30.03 in SE 6.9 mph 6.9 mph 50% 0.00 in WeatherDisplay:10.37 W/m2 CLR
09:22 52.8 °F 34.2 °F 30.03 in SSE 4.6 mph 4.6 mph 49% 0.00 in WeatherDisplay:10.37 W/m2 CLR
09:27 53.0 °F 34.3 °F 30.03 in South 4.6 mph 4.6 mph 49% 0.00 in WeatherDisplay:10.37 W/m2 CLR
09:32 53.4 °F 34.2 °F 30.02 in SSE 6.9 mph 6.9 mph 48% 0.00 in WeatherDisplay:10.37 W/m2 CLR
09:35 53.3 °F 34.1 °F 30.02 in SE 5.8 mph 5.8 mph 48% 0.00 in WeatherDisplay:10.37 W/m2 CLR
09:40 53.7 °F 35.0 °F 30.02 in ESE 3.5 mph 3.5 mph 49% 0.00 in WeatherDisplay:10.37 W/m2 CLR
09:45 54.4 °F 34.6 °F 30.02 in SSE 6.9 mph 6.9 mph 47% 0.00 in WeatherDisplay:10.37 W/m2 CLR
09:50 54.7 °F 34.3 °F 30.01 in SE 10.4 mph 10.4 mph 46% 0.00 in WeatherDisplay:10.37 W/m2 CLR
09:55 54.6 °F 34.2 °F 30.01 in SE 6.9 mph 6.9 mph 46% 0.00 in WeatherDisplay:10.37 W/m2 CLR
10:00 54.5 °F 34.1 °F 30.00 in SE 11.5 mph 11.5 mph 46% 0.00 in WeatherDisplay:10.37 W/m2 CLR
10:05 54.9 °F 34.5 °F 30.02 in ESE 6.0 mph 6.0 mph 46% 0.00 in WeatherDisplay:10.37 W/m2 CLR
10:10 54.8 °F 34.4 °F 30.02 in SE 4.6 mph 4.6 mph 46% 0.00 in WeatherDisplay:10.37 W/m2 CLR
10:15 54.7 °F 34.3 °F 30.02 in SSW 12.7 mph 12.7 mph 46% 0.00 in WeatherDisplay:10.37 W/m2 CLR
10:20 54.6 °F 34.2 °F 30.02 in SW 9.2 mph 9.2 mph 46% 0.00 in WeatherDisplay:10.37 W/m2 CLR
10:25 54.5 °F 34.1 °F 30.02 in SSE 11.5 mph 11.5 mph 46% 0.00 in WeatherDisplay:10.37 W/m2 CLR
10:30 54.7 °F 34.3 °F 30.01 in SSE 5.8 mph 5.8 mph 46% 0.00 in WeatherDisplay:10.37 W/m2 CLR
10:35 54.9 °F 33.9 °F 30.01 in South 5.8 mph 5.8 mph 45% 0.00 in WeatherDisplay:10.37 W/m2 CLR
10:40 55.1 °F 34.1 °F 30.00 in ESE 6.9 mph 6.9 mph 45% 0.00 in WeatherDisplay:10.37 W/m2 CLR
10:45 55.7 °F 34.7 °F 29.99 in ESE 11.5 mph 11.5 mph 45% 0.00 in WeatherDisplay:10.37 W/m2 CLR
10:50 56.3 °F 34.1 °F 29.99 in SSE 10.4 mph 10.4 mph 43% 0.00 in WeatherDisplay:10.37 W/m2 CLR
10:55 56.3 °F 34.6 °F 29.99 in ESE 11.5 mph 11.5 mph 44% 0.00 in WeatherDisplay:10.37 W/m2 CLR
11:00 56.0 °F 34.4 °F 29.99 in SE 9.0 mph 9.0 mph 44% 0.00 in WeatherDisplay:10.37 W/m2 CLR
11:05 56.3 °F 34.1 °F 30.00 in SE 11.5 mph 11.5 mph 43% 0.00 in WeatherDisplay:10.37 W/m2 CLR
11:10 56.4 °F 35.3 °F 29.99 in ESE 4.6 mph 4.8 mph 45% 0.00 in WeatherDisplay:10.37 W/m2 CLR
11:15 57.1 °F 34.2 °F 29.98 in SE 6.9 mph 6.9 mph 42% 0.00 in WeatherDisplay:10.37 W/m2 CLR
11:20 57.1 °F 34.8 °F 29.98 in SSW 6.9 mph 6.9 mph 43% 0.00 in WeatherDisplay:10.37 W/m2 CLR
11:25 57.2 °F 34.3 °F 29.98 in ESE 11.5 mph 11.5 mph 42% 0.00 in WeatherDisplay:10.37 W/m2 CLR
11:30 57.1 °F 34.2 °F 29.97 in ESE 5.8 mph 5.8 mph 42% 0.00 in WeatherDisplay:10.37 W/m2 CLR
11:35 57.1 °F 34.2 °F 29.97 in ESE 12.7 mph 12.7 mph 42% 0.00 in WeatherDisplay:10.37 W/m2 CLR
11:40 57.5 °F 34.0 °F 29.97 in SE 11.5 mph 11.5 mph 41% 0.00 in WeatherDisplay:10.37 W/m2 CLR
11:45 57.8 °F 34.2 °F 29.97 in SE 10.4 mph 10.4 mph 41% 0.00 in WeatherDisplay:10.37 W/m2 CLR
11:50 57.8 °F 34.2 °F 29.97 in SE 13.0 mph 13.0 mph 41% 0.00 in WeatherDisplay:10.37 W/m2 CLR
11:55 58.3 °F 34.1 °F 29.96 in SE 8.1 mph 8.1 mph 40% 0.00 in WeatherDisplay:10.37 W/m2 CLR
12:00 57.8 °F 33.6 °F 29.95 in ESE 11.5 mph 11.5 mph 40% 0.00 in WeatherDisplay:10.37 W/m2 CLR
12:05 57.8 °F 33.6 °F 29.95 in ESE 11.5 mph 11.5 mph 40% 0.00 in WeatherDisplay:10.37 W/m2 CLR
12:10 57.7 °F 33.5 °F 29.94 in SE 13.0 mph 13.0 mph 40% 0.00 in WeatherDisplay:10.37 W/m2 CLR
12:15 58.3 °F 34.1 °F 29.94 in East 12.7 mph 12.7 mph 40% 0.00 in WeatherDisplay:10.37 W/m2 CLR
12:20 59.0 °F 33.4 °F 29.93 in ESE 11.5 mph 11.5 mph 38% 0.00 in WeatherDisplay:10.37 W/m2 CLR
12:25 59.5 °F 33.9 °F 29.93 in SSE 12.7 mph 12.7 mph 38% 0.00 in WeatherDisplay:10.37 W/m2 CLR
12:30 59.5 °F 33.2 °F 29.92 in SE 11.5 mph 11.5 mph 37% 0.00 in WeatherDisplay:10.37 W/m2 CLR
12:35 59.5 °F 33.9 °F 29.92 in East 7.0 mph 7.0 mph 38% 0.00 in WeatherDisplay:10.37 W/m2 CLR
12:41 59.0 °F 33.4 °F 29.91 in ENE 13.8 mph 13.8 mph 38% 0.00 in WeatherDisplay:10.37 W/m2 CLR
12:46 58.6 °F 33.7 °F 29.91 in SSE 14.0 mph 14.0 mph 39% 0.00 in WeatherDisplay:10.37 W/m2 CLR
12:51 59.0 °F 34.1 °F 29.91 in East 15.0 mph 15.0 mph 39% 0.00 in WeatherDisplay:10.37 W/m2 CLR
12:56 60.2 °F 33.8 °F 29.90 in ESE 11.5 mph 11.5 mph 37% 0.00 in WeatherDisplay:10.37 W/m2 CLR
13:01 61.1 °F 34.6 °F 29.89 in East 15.0 mph 15.0 mph 37% 0.00 in WeatherDisplay:10.37 W/m2 CLR
13:06 60.3 °F 33.2 °F 29.90 in ESE 17.3 mph 17.3 mph 36% 0.00 in WeatherDisplay:10.37 W/m2 CLR
13:11 61.2 °F 34.0 °F 29.90 in ENE 11.5 mph 11.5 mph 36% 0.00 in WeatherDisplay:10.37 W/m2 CLR
13:16 60.7 °F 33.6 °F 29.90 in East 18.4 mph 18.4 mph 36% 0.00 in WeatherDisplay:10.37 W/m2 CLR
13:21 60.4 °F 33.3 °F 29.90 in ESE 11.5 mph 12.1 mph 36% 0.00 in WeatherDisplay:10.37 W/m2 CLR
13:26 60.8 °F 33.7 °F 29.90 in ESE 16.1 mph 16.1 mph 36% 0.00 in WeatherDisplay:10.37 W/m2 CLR
13:31 60.6 °F 33.5 °F 29.89 in East 15.0 mph 15.0 mph 36% 0.00 in WeatherDisplay:10.37 W/m2 CLR
13:36 60.4 °F 32.6 °F 29.89 in ESE 11.5 mph 11.5 mph 35% 0.00 in WeatherDisplay:10.37 W/m2 CLR
13:41 60.0 °F 32.2 °F 29.89 in SE 10.4 mph 10.4 mph 35% 0.00 in WeatherDisplay:10.37 W/m2 CLR
13:46 60.3 °F 33.2 °F 29.88 in ESE 13.0 mph 13.0 mph 36% 0.00 in WeatherDisplay:10.37 W/m2 CLR
13:51 60.6 °F 33.5 °F 29.87 in ESE 18.4 mph 18.4 mph 36% 0.00 in WeatherDisplay:10.37 W/m2 CLR
13:56 60.7 °F 32.9 °F 29.87 in ESE 11.5 mph 11.5 mph 35% 0.00 in WeatherDisplay:10.37 W/m2 CLR
14:01 61.5 °F 33.6 °F 29.86 in SE 15.0 mph 15.0 mph 35% 0.00 in WeatherDisplay:10.37 W/m2 CLR
14:03 62.1 °F 34.1 °F 29.88 in SE 11.5 mph 11.5 mph 35% 0.00 in WeatherDisplay:10.37 W/m2 CLR
14:08 62.8 °F 33.2 °F 29.87 in ESE 11.5 mph 11.5 mph 33% 0.00 in WeatherDisplay:10.37 W/m2 CLR
14:13 62.3 °F 32.0 °F 29.87 in East 13.8 mph 13.8 mph 32% 0.00 in WeatherDisplay:10.37 W/m2 CLR
14:18 61.4 °F 32.0 °F 29.87 in East 19.6 mph 19.6 mph 33% 0.00 in WeatherDisplay:10.37 W/m2 CLR
14:23 60.8 °F 32.2 °F 29.87 in ESE 13.8 mph 13.8 mph 34% 0.00 in WeatherDisplay:10.37 W/m2 CLR
14:28 61.1 °F 32.5 °F 29.87 in SE 11.5 mph 11.5 mph 34% 0.00 in WeatherDisplay:10.37 W/m2 CLR
14:33 62.1 °F 33.4 °F 29.86 in ESE 18.4 mph 18.4 mph 34% 0.00 in WeatherDisplay:10.37 W/m2 CLR
14:38 62.8 °F 32.5 °F 29.85 in East 19.0 mph 19.0 mph 32% 0.00 in WeatherDisplay:10.37 W/m2 CLR
14:43 62.1 °F 32.6 °F 29.85 in East 19.6 mph 19.6 mph 33% 0.00 in WeatherDisplay:10.37 W/m2
14:48 61.7 °F 33.0 °F 29.85 in ESE 17.3 mph 17.3 mph 34% 0.00 in WeatherDisplay:10.37 W/m2
14:53 62.9 °F 33.3 °F 29.83 in SSE 15.0 mph 15.0 mph 33% 0.00 in WeatherDisplay:10.37 W/m2 CLR
14:58 63.0 °F 32.7 °F 29.83 in ESE 19.6 mph 19.6 mph 32% 0.00 in WeatherDisplay:10.37 W/m2 CLR
15:03 63.3 °F 32.9 °F 29.84 in ESE 18.4 mph 18.4 mph 32% 0.00 in WeatherDisplay:10.37 W/m2 CLR
15:08 63.4 °F 33.0 °F 29.83 in ESE 17.3 mph 17.3 mph 32% 0.00 in WeatherDisplay:10.37 W/m2 CLR
15:13 63.7 °F 33.3 °F 29.83 in East 12.0 mph 12.0 mph 32% 0.00 in WeatherDisplay:10.37 W/m2
15:19 63.6 °F 32.4 °F 29.83 in East 19.6 mph 19.6 mph 31% 0.00 in WeatherDisplay:10.37 W/m2
15:24 63.2 °F 32.8 °F 29.83 in ESE 18.4 mph 18.4 mph 32% 0.00 in WeatherDisplay:10.37 W/m2 CLR
15:29 62.8 °F 32.5 °F 29.83 in East 18.4 mph 18.4 mph 32% 0.00 in WeatherDisplay:10.37 W/m2 CLR
15:34 62.4 °F 32.1 °F 29.84 in East 17.3 mph 17.3 mph 32% 0.00 in WeatherDisplay:10.37 W/m2 CLR
15:39 61.3 °F 36.8 °F 29.85 in SSE 17.3 mph 17.3 mph 40% 0.00 in WeatherDisplay:10.37 W/m2 CLR
15:44 58.8 °F 39.7 °F 29.85 in SSE 19.0 mph 19.0 mph 49% 0.00 in WeatherDisplay:10.37 W/m2 CLR
15:49 57.6 °F 39.1 °F 29.86 in SSE 16.1 mph 16.1 mph 50% 0.00 in WeatherDisplay:10.37 W/m2 CLR
15:54 57.3 °F 39.3 °F 29.87 in SSE 16.1 mph 16.1 mph 51% 0.00 in WeatherDisplay:10.37 W/m2 CLR
15:59 57.0 °F 40.0 °F 29.87 in SE 17.3 mph 17.3 mph 53% 0.00 in WeatherDisplay:10.37 W/m2 CLR
16:04 56.3 °F 38.4 °F 29.88 in SSE 20.7 mph 20.7 mph 51% 0.00 in WeatherDisplay:10.37 W/m2 CLR
16:09 56.3 °F 39.4 °F 29.88 in SE 13.8 mph 13.8 mph 53% 0.00 in WeatherDisplay:10.37 W/m2 CLR
16:14 56.6 °F 38.2 °F 29.88 in SSE 16.1 mph 16.1 mph 50% 0.00 in WeatherDisplay:10.37 W/m2 CLR
16:19 57.0 °F 39.0 °F 29.87 in SE 16.1 mph 16.1 mph 51% 0.00 in WeatherDisplay:10.37 W/m2 CLR
16:24 57.3 °F 40.3 °F 29.88 in SSE 13.8 mph 13.8 mph 53% 0.00 in WeatherDisplay:10.37 W/m2 CLR
16:29 56.9 °F 39.9 °F 29.88 in SSE 10.4 mph 10.4 mph 53% 0.00 in WeatherDisplay:10.37 W/m2 CLR
16:34 56.6 °F 40.6 °F 29.88 in SE 10.4 mph 10.4 mph 55% 0.00 in WeatherDisplay:10.37 W/m2 CLR
16:39 56.6 °F 40.1 °F 29.88 in ESE 12.7 mph 12.7 mph 54% 0.00 in WeatherDisplay:10.37 W/m2 CLR
16:44 56.8 °F 39.8 °F 29.88 in SSE 11.5 mph 11.5 mph 53% 0.00 in WeatherDisplay:10.37 W/m2 CLR
16:49 56.7 °F 39.7 °F 29.87 in SSE 17.3 mph 17.3 mph 53% 0.00 in WeatherDisplay:10.37 W/m2 CLR
16:54 56.3 °F 39.4 °F 29.88 in SSE 19.6 mph 19.6 mph 53% 0.00 in WeatherDisplay:10.37 W/m2 CLR
16:59 55.7 °F 39.3 °F 29.88 in SE 19.6 mph 19.6 mph 54% 0.00 in WeatherDisplay:10.37 W/m2 CLR
17:04 55.3 °F 39.9 °F 29.90 in South 19.6 mph 19.6 mph 56% 0.00 in WeatherDisplay:10.37 W/m2 CLR
17:09 54.9 °F 40.4 °F 29.90 in SE 15.0 mph 15.0 mph 58% 0.00 in WeatherDisplay:10.37 W/m2 CLR
17:14 54.7 °F 40.2 °F 29.91 in ESE 17.0 mph 17.0 mph 58% 0.00 in WeatherDisplay:10.37 W/m2 CLR
17:19 54.4 °F 40.4 °F 29.91 in ESE 16.1 mph 16.1 mph 59% 0.00 in WeatherDisplay:10.37 W/m2 CLR
17:24 54.5 °F 40.0 °F 29.90 in SE 19.6 mph 19.6 mph 58% 0.00 in WeatherDisplay:10.37 W/m2 CLR
17:29 54.5 °F 40.0 °F 29.90 in SE 18.4 mph 18.4 mph 58% 0.00 in WeatherDisplay:10.37 W/m2 CLR
17:34 54.5 °F 40.5 °F 29.90 in SE 15.0 mph 15.0 mph 59% 0.00 in WeatherDisplay:10.37 W/m2 CLR
17:39 54.4 °F 40.4 °F 29.90 in ESE 17.3 mph 17.3 mph 59% 0.00 in WeatherDisplay:10.37 W/m2 CLR
17:44 54.1 °F 40.5 °F 29.90 in ESE 17.3 mph 17.3 mph 60% 0.00 in WeatherDisplay:10.37 W/m2 CLR
17:49 53.9 °F 40.8 °F 29.90 in ESE 13.8 mph 13.8 mph 61% 0.00 in WeatherDisplay:10.37 W/m2 CLR
17:54 53.7 °F 41.0 °F 29.90 in East 12.7 mph 12.7 mph 62% 0.00 in WeatherDisplay:10.37 W/m2 CLR
17:59 53.5 °F 40.8 °F 29.89 in ESE 16.1 mph 16.1 mph 62% 0.00 in WeatherDisplay:10.37 W/m2 CLR
18:04 53.4 °F 40.3 °F 29.88 in East 17.3 mph 17.3 mph 61% 0.00 in WeatherDisplay:10.37 W/m2 CLR
18:09 53.3 °F 40.6 °F 29.88 in ESE 12.7 mph 12.7 mph 62% 0.00 in WeatherDisplay:10.37 W/m2 CLR
18:14 53.3 °F 40.2 °F 29.88 in ESE 11.5 mph 11.5 mph 61% 0.00 in WeatherDisplay:10.37 W/m2 CLR
18:19 53.2 °F 40.1 °F 29.88 in SE 16.1 mph 16.1 mph 61% 0.00 in WeatherDisplay:10.37 W/m2 CLR
18:24 52.6 °F 41.2 °F 29.88 in ESE 18.4 mph 18.4 mph 65% 0.00 in WeatherDisplay:10.37 W/m2 CLR
18:29 51.7 °F 41.5 °F 29.89 in ESE 15.0 mph 15.0 mph 68% 0.00 in WeatherDisplay:10.37 W/m2 CLR
18:34 51.2 °F 41.7 °F 29.90 in SE 11.5 mph 11.5 mph 70% 0.00 in WeatherDisplay:10.37 W/m2 CLR
18:39 51.3 °F 41.5 °F 29.92 in SE 13.8 mph 13.8 mph 69% 0.01 in WeatherDisplay:10.37 W/m2 RA
18:44 51.3 °F 41.8 °F 29.92 in SSE 11.0 mph 11.0 mph 70% 0.01 in WeatherDisplay:10.37 W/m2 RA
18:49 51.4 °F 41.9 °F 29.93 in SE 9.2 mph 9.2 mph 70% 0.01 in WeatherDisplay:10.37 W/m2 CLR
18:54 51.6 °F 41.4 °F 29.92 in South 10.4 mph 10.4 mph 68% 0.01 in WeatherDisplay:10.37 W/m2 CLR
18:59 51.6 °F 40.6 °F 29.92 in SSE 13.0 mph 13.0 mph 66% 0.02 in WeatherDisplay:10.37 W/m2 RA
19:04 51.1 °F 41.3 °F 29.88 in South 13.0 mph 13.0 mph 69% 0.03 in WeatherDisplay:10.37 W/m2 RA
19:09 49.2 °F 40.2 °F 29.89 in SSW 6.9 mph 6.9 mph 71% 0.04 in WeatherDisplay:10.37 W/m2 RA
19:14 47.8 °F 40.6 °F 29.90 in SSW 6.9 mph 6.9 mph 76% 0.06 in WeatherDisplay:10.37 W/m2 RA
19:19 46.8 °F 40.3 °F 29.90 in West 3.5 mph   78% 0.12 in WeatherDisplay:10.37 W/m2 RA
19:20 46.8 °F 40.3 °F 29.89 in Calm     78% 0.12 in WeatherDisplay:10.37 W/m2 RA
19:25 46.4 °F 40.6 °F 29.89 in ESE 5.8 mph 5.8 mph 80% 0.15 in WeatherDisplay:10.37 W/m2 RA
19:30 46.3 °F 40.5 °F 29.90 in SE 6.9 mph 6.9 mph 80% 0.17 in WeatherDisplay:10.37 W/m2 RA
19:35 46.3 °F 41.1 °F 29.91 in SE 4.6 mph 4.6 mph 82% 0.17 in WeatherDisplay:10.37 W/m2 RA
19:40 46.2 °F 41.3 °F 29.91 in ESE 6.9 mph 6.9 mph 83% 0.16 in WeatherDisplay:10.37 W/m2
19:45 46.3 °F 41.4 °F 29.90 in SE 5.8 mph 5.8 mph 83% 0.16 in WeatherDisplay:10.37 W/m2 CLR
19:50 46.5 °F 41.6 °F 29.90 in SE 9.2 mph 9.2 mph 83% 0.16 in WeatherDisplay:10.37 W/m2 CLR
19:55 46.6 °F 41.7 °F 29.90 in ESE 6.0 mph 6.0 mph 83% 0.16 in WeatherDisplay:10.37 W/m2 CLR
20:00 46.7 °F 42.1 °F 29.90 in SE 3.5 mph 3.5 mph 84% 0.15 in WeatherDisplay:10.37 W/m2 CLR
20:05 46.7 °F 42.1 °F 29.88 in SE 4.6 mph 4.6 mph 84% 0.13 in WeatherDisplay:10.37 W/m2 CLR
20:10 46.8 °F 42.5 °F 29.88 in ESE 3.5 mph 3.5 mph 85% 0.13 in WeatherDisplay:10.37 W/m2 CLR
20:15 46.9 °F 42.9 °F 29.88 in ESE 2.3 mph 2.3 mph 86% 0.10 in WeatherDisplay:10.37 W/m2 CLR
20:20 46.9 °F 42.9 °F 29.88 in ESE 3.0 mph 3.0 mph 86% 0.05 in WeatherDisplay:10.37 W/m2 CLR
20:25 47.0 °F 43.0 °F 29.89 in SE 1.2 mph 1.2 mph 86% 0.02 in WeatherDisplay:10.37 W/m2 CLR
20:30 47.2 °F 43.2 °F 29.89 in SE 1.2 mph 1.2 mph 86% 0.00 in WeatherDisplay:10.37 W/m2 CLR
20:35 47.2 °F 43.2 °F 29.89 in Calm     86% 0.00 in WeatherDisplay:10.37 W/m2 CLR
20:40 47.2 °F 43.2 °F 29.89 in Calm     86% 0.00 in WeatherDisplay:10.37 W/m2 CLR
20:45 47.3 °F 43.6 °F 29.89 in SE 1.2 mph 1.2 mph 87% 0.00 in WeatherDisplay:10.37 W/m2 CLR
20:50 47.4 °F 43.4 °F 29.90 in Calm     86% 0.00 in WeatherDisplay:10.37 W/m2 CLR
20:55 47.6 °F 43.3 °F 29.89 in Calm     85% 0.00 in WeatherDisplay:10.37 W/m2 CLR
21:00 47.7 °F 43.4 °F 29.89 in SE 1.2 mph 1.2 mph 85% 0.00 in WeatherDisplay:10.37 W/m2 CLR
21:05 47.8 °F 43.2 °F 29.87 in SE 2.3 mph 2.3 mph 84% 0.00 in WeatherDisplay:10.37 W/m2 CLR
21:10 47.9 °F 43.3 °F 29.87 in SE 3.0 mph 3.0 mph 84% 0.00 in WeatherDisplay:10.37 W/m2 CLR
21:15 47.9 °F 43.0 °F 29.87 in East 4.0 mph 4.0 mph 83% 0.00 in WeatherDisplay:10.37 W/m2 CLR
21:20 47.9 °F 42.0 °F 29.87 in SE 6.9 mph 6.9 mph 80% 0.00 in WeatherDisplay:10.37 W/m2 CLR
21:25 47.9 °F 41.7 °F 29.87 in SE 9.2 mph 9.2 mph 79% 0.01 in WeatherDisplay:10.37 W/m2 RA
21:30 47.8 °F 41.9 °F 29.87 in ESE 6.9 mph 6.9 mph 80% 0.01 in WeatherDisplay:10.37 W/m2 RA
21:35 47.6 °F 41.7 °F 29.87 in ESE 5.8 mph 5.8 mph 80% 0.01 in WeatherDisplay:10.37 W/m2
21:40 47.4 °F 41.5 °F 29.87 in ESE 8.1 mph 8.1 mph 80% 0.01 in WeatherDisplay:10.37 W/m2 CLR
21:45 47.3 °F 41.4 °F 29.87 in ESE 4.6 mph 4.6 mph 80% 0.01 in WeatherDisplay:10.37 W/m2 CLR
21:50 47.2 °F 41.7 °F 29.87 in East 3.5 mph 3.5 mph 81% 0.01 in WeatherDisplay:10.37 W/m2 CLR
21:55 47.2 °F 41.3 °F 29.87 in ESE 9.2 mph 9.2 mph 80% 0.01 in WeatherDisplay:10.37 W/m2 CLR
22:00 47.0 °F 41.1 °F 29.87 in ESE 11.5 mph 11.5 mph 80% 0.01 in WeatherDisplay:10.37 W/m2 CLR
22:05 46.9 °F 41.4 °F 29.87 in SE 12.7 mph 12.7 mph 81% 0.01 in WeatherDisplay:10.37 W/m2 CLR
22:10 46.8 °F 41.3 °F 29.87 in SE 11.5 mph 11.5 mph 81% 0.01 in WeatherDisplay:10.37 W/m2 CLR
22:15 46.8 °F 41.3 °F 29.87 in ESE 11.5 mph 11.5 mph 81% 0.01 in WeatherDisplay:10.37 W/m2 CLR
22:20 46.7 °F 41.2 °F 29.87 in ESE 13.8 mph 13.8 mph 81% 0.01 in WeatherDisplay:10.37 W/m2 CLR
22:25 46.7 °F 41.5 °F 29.86 in ESE 11.5 mph 11.5 mph 82% 0.00 in WeatherDisplay:10.37 W/m2 CLR
22:26 46.7 °F 41.2 °F 29.87 in ESE 13.8 mph 13.8 mph 81% 0.00 in WeatherDisplay:10.37 W/m2 CLR
22:31 46.6 °F 41.4 °F 29.86 in ESE 12.7 mph 12.7 mph 82% 0.00 in WeatherDisplay:10.37 W/m2 CLR
22:36 46.4 °F 41.2 °F 29.86 in SE 15.0 mph 15.0 mph 82% 0.00 in WeatherDisplay:10.37 W/m2 CLR
22:41 46.4 °F 41.2 °F 29.86 in East 12.7 mph 12.7 mph 82% 0.00 in WeatherDisplay:10.37 W/m2 CLR
22:46 46.3 °F 41.1 °F 29.86 in SE 12.7 mph 12.7 mph 82% 0.00 in WeatherDisplay:10.37 W/m2 CLR
22:51 46.2 °F 41.0 °F 29.86 in ESE 18.4 mph 18.4 mph 82% 0.00 in WeatherDisplay:10.37 W/m2 CLR
22:56 46.1 °F 40.9 °F 29.86 in ESE 15.0 mph 15.0 mph 82% 0.00 in WeatherDisplay:10.37 W/m2 CLR
23:01 46.0 °F 40.8 °F 29.86 in SE 13.8 mph 13.8 mph 82% 0.00 in WeatherDisplay:10.37 W/m2 CLR
23:06 46.0 °F 41.1 °F 29.85 in ESE 12.7 mph 12.7 mph 83% 0.00 in WeatherDisplay:10.37 W/m2 CLR
23:11 45.9 °F 41.0 °F 29.84 in ESE 12.7 mph 12.7 mph 83% 0.00 in WeatherDisplay:10.37 W/m2 CLR
23:16 45.9 °F 41.0 °F 29.84 in East 15.0 mph 15.0 mph 83% 0.00 in WeatherDisplay:10.37 W/m2 CLR
23:21 45.8 °F 40.9 °F 29.84 in ESE 13.8 mph 13.8 mph 83% 0.00 in WeatherDisplay:10.37 W/m2 CLR
23:26 45.6 °F 41.0 °F 29.84 in SE 11.5 mph 11.5 mph 84% 0.00 in WeatherDisplay:10.37 W/m2 CLR
23:31 45.5 °F 40.9 °F 29.84 in ESE 12.7 mph 12.7 mph 84% 0.00 in WeatherDisplay:10.37 W/m2 CLR
23:36 45.4 °F 40.8 °F 29.85 in ESE 14.0 mph 14.0 mph 84% 0.00 in WeatherDisplay:10.37 W/m2 CLR
23:41 45.4 °F 40.8 °F 29.85 in ESE 12.7 mph 12.7 mph 84% 0.00 in WeatherDisplay:10.37 W/m2 CLR
23:46 45.4 °F 40.8 °F 29.85 in East 11.5 mph 11.5 mph 84% 0.00 in WeatherDisplay:10.37 W/m2 CLR
23:51 45.4 °F 41.2 °F 29.84 in ESE 12.7 mph 12.7 mph 85% 0.00 in WeatherDisplay:10.37 W/m2 CLR
23:56 45.4 °F 40.8 °F 29.84 in ESE 13.8 mph 13.8 mph 84% 0.00 in WeatherDisplay:10.37 W/m2 CLR
Windsor Co Weather
Compliments of Weather Underground - 3 mb